Time;durP1;ratioP1;P1;durP2;ratioP2;P2;SDS_P1;SDS_P2;PMS_P1;PMS_P2;Temp;Humidity;BMP_temperature;BMP_pressure;BME280_temperature;BME280_humidity;BME280_pressure;Samples;Min_cycle;Max_cycle;Signal;HPM_P1;HPM_P2
2022/09/28 00:00:30;;;;;;;;;;;16.00;95.70;;;;;;5101332;28;19970;-52
2022/09/28 00:02:56;;;;;;;;;;;16.00;95.30;;;;;;5100980;28;19909;-50
2022/09/28 00:05:22;;;;;;;;;;;16.00;95.30;;;;;;5100114;28;19927;-49
2022/09/28 00:07:48;;;;;;;;;;;16.00;95.70;;;;;;5099607;28;19908;-48
2022/09/28 00:10:14;;;;;;;;;;;16.00;95.40;;;;;;5099457;28;19908;-49
2022/09/28 00:12:40;;;;;;;;;;;16.00;95.30;;;;;;5099774;28;19916;-49
2022/09/28 00:15:07;;;;;;;;;;;16.00;95.20;;;;;;5099424;28;19938;-47
2022/09/28 00:17:32;;;;;;;;;;;16.00;95.40;;;;;;5099493;28;19952;-48
2022/09/28 00:19:58;;;;;;;;;;;16.00;95.20;;;;;;5100004;28;19915;-49
2022/09/28 00:22:23;;;;;;;;;;;16.00;95.20;;;;;;5099333;28;19955;-51
2022/09/28 00:24:49;;;;;;;;;;;16.00;95.20;;;;;;5099633;28;19908;-50
2022/09/28 00:27:15;;;;;;;;;;;16.00;94.80;;;;;;5099603;28;19991;-51
2022/09/28 00:29:40;;;;;;;;;;;16.00;94.90;;;;;;5099633;28;19908;-48
2022/09/28 00:32:09;;;;;;;;;;;16.00;95.00;;;;;;5099210;28;19942;-47
2022/09/28 00:34:36;;;;;;;;;;;15.90;95.00;;;;;;5099424;28;19908;-51
2022/09/28 00:37:03;;;;;;;;;;;15.90;95.10;;;;;;5099244;28;19912;-49
2022/09/28 00:39:30;;;;;;;;;;;15.90;95.10;;;;;;5099498;28;20036;-51
2022/09/28 00:41:56;;;;;;;;;;;15.90;95.10;;;;;;5099242;28;19908;-51
2022/09/28 00:44:25;;;;;;;;;;;16.00;95.10;;;;;;5099347;28;19999;-48
2022/09/28 00:46:50;;;;;;;;;;;15.90;94.90;;;;;;5099362;28;19935;-51
2022/09/28 00:49:17;;;;;;;;;;;15.90;94.90;;;;;;5099028;28;19908;-49
2022/09/28 00:51:43;;;;;;;;;;;15.90;95.00;;;;;;5099002;28;19967;-47
2022/09/28 00:54:10;;;;;;;;;;;15.90;95.00;;;;;;5099001;28;20375;-50
2022/09/28 00:56:37;;;;;;;;;;;15.90;94.90;;;;;;5098949;28;19907;-51
2022/09/28 00:59:03;;;;;;;;;;;15.90;95.10;;;;;;5099303;28;19955;-48
2022/09/28 01:01:29;;;;;;;;;;;15.90;94.90;;;;;;5099089;28;19951;-49
2022/09/28 01:03:57;;;;;;;;;;;15.90;94.70;;;;;;5099095;28;20327;-46
2022/09/28 01:06:26;;;;;;;;;;;15.90;94.80;;;;;;5029465;28;1969726;-51
2022/09/28 01:08:54;;;;;;;;;;;15.90;94.80;;;;;;5099660;28;20383;-50
2022/09/28 01:11:20;;;;;;;;;;;15.90;94.70;;;;;;5099968;28;20003;-50
2022/09/28 01:13:47;;;;;;;;;;;15.90;94.90;;;;;;5100019;28;19989;-49
2022/09/28 01:16:33;;;;;;;;;;;15.90;94.60;;;;;;5100093;28;20001;-51
2022/09/28 01:19:05;;;;;;;;;;;15.90;94.60;;;;;;5099573;28;20052;-49
2022/09/28 01:21:37;;;;;;;;;;;15.90;94.70;;;;;;5099466;28;19916;-49
2022/09/28 01:24:21;;;;;;;;;;;15.90;94.80;;;;;;5099370;28;19919;-48
2022/09/28 01:26:47;;;;;;;;;;;15.90;94.50;;;;;;5099667;28;19915;-51
2022/09/28 01:29:16;;;;;;;;;;;15.90;94.80;;;;;;5099335;28;19909;-49
2022/09/28 01:31:44;;;;;;;;;;;15.90;94.80;;;;;;5099138;28;19933;-47
2022/09/28 01:34:15;;;;;;;;;;;15.90;94.80;;;;;;5098429;28;19962;-48
2022/09/28 01:36:49;;;;;;;;;;;15.90;94.90;;;;;;5099286;28;19977;-52
2022/09/28 01:39:17;;;;;;;;;;;15.90;95.00;;;;;;5099335;28;19908;-50
2022/09/28 01:41:44;;;;;;;;;;;15.80;95.20;;;;;;5099332;28;19915;-48
2022/09/28 01:44:13;;;;;;;;;;;15.90;95.20;;;;;;5099310;28;20279;-51
2022/09/28 01:46:43;;;;;;;;;;;15.80;95.30;;;;;;5099313;28;19908;-46
2022/09/28 01:49:16;;;;;;;;;;;15.80;95.20;;;;;;5099140;28;19947;-50
2022/09/28 01:52:01;;;;;;;;;;;15.80;95.20;;;;;;5098678;28;19916;-47
2022/09/28 01:54:30;;;;;;;;;;;15.80;95.60;;;;;;5047607;28;19908;-48
2022/09/28 01:57:05;;;;;;;;;;;15.80;95.70;;;;;;5099052;28;20446;-50
2022/09/28 01:59:32;;;;;;;;;;;15.80;95.30;;;;;;5098881;28;20382;-49
2022/09/28 02:02:01;;;;;;;;;;;15.80;95.40;;;;;;5099017;28;19930;-52
2022/09/28 02:04:36;;;;;;;;;;;15.80;95.70;;;;;;5098741;28;19915;-49
2022/09/28 02:07:05;;;;;;;;;;;15.80;95.70;;;;;;5099370;28;20260;-51
2022/09/28 02:09:35;;;;;;;;;;;15.70;95.70;;;;;;5098723;28;20008;-48
2022/09/28 02:12:04;;;;;;;;;;;15.70;95.70;;;;;;5098493;28;20005;-49
2022/09/28 02:14:32;;;;;;;;;;;15.70;95.60;;;;;;5098708;28;20252;-49
2022/09/28 02:16:58;;;;;;;;;;;15.70;95.40;;;;;;5098823;28;20287;-49
2022/09/28 02:19:25;;;;;;;;;;;15.70;95.80;;;;;;5098554;28;19908;-52
2022/09/28 02:22:06;;;;;;;;;;;15.70;95.80;;;;;;5099096;28;19908;-51
2022/09/28 02:24:41;;;;;;;;;;;15.70;95.90;;;;;;5098486;28;19919;-47
2022/09/28 02:27:15;;;;;;;;;;;15.70;95.50;;;;;;5098331;28;19973;-48
2022/09/28 02:29:40;;;;;;;;;;;15.70;95.60;;;;;;5098565;28;19908;-48
2022/09/28 02:32:06;;;;;;;;;;;15.70;95.70;;;;;;5098756;28;19912;-51
2022/09/28 02:34:32;;;;;;;;;;;15.70;95.70;;;;;;5098282;28;19915;-50
2022/09/28 02:36:58;;;;;;;;;;;15.70;95.70;;;;;;5098103;28;20007;-49
2022/09/28 02:39:25;;;;;;;;;;;15.70;95.40;;;;;;5098456;28;19915;-49
2022/09/28 02:42:00;;;;;;;;;;;15.80;95.40;;;;;;5098571;28;19908;-49
2022/09/28 02:44:25;;;;;;;;;;;15.80;95.50;;;;;;5098421;28;20264;-50
2022/09/28 02:46:58;;;;;;;;;;;15.70;95.90;;;;;;5098147;28;19915;-49
2022/09/28 02:49:36;;;;;;;;;;;15.70;95.90;;;;;;5098252;28;19908;-49
2022/09/28 02:52:14;;;;;;;;;;;15.70;96.00;;;;;;5098036;28;19977;-51
2022/09/28 02:54:42;;;;;;;;;;;15.70;95.90;;;;;;5098277;28;19936;-51
2022/09/28 02:57:33;;;;;;;;;;;15.70;95.80;;;;;;5098283;28;20424;-50
2022/09/28 03:00:07;;;;;;;;;;;15.70;96.10;;;;;;5098266;28;20279;-48
2022/09/28 03:02:41;;;;;;;;;;;15.70;96.00;;;;;;5098411;28;20002;-50
2022/09/28 03:05:06;;;;;;;;;;;15.70;96.10;;;;;;5097980;28;19927;-48
2022/09/28 03:07:55;;;;;;;;;;;15.70;95.80;;;;;;5098154;28;20286;-48
2022/09/28 03:10:34;;;;;;;;;;;15.70;96.20;;;;;;5050915;28;19908;-49
2022/09/28 03:13:00;;;;;;;;;;;15.70;95.80;;;;;;5098071;28;19934;-49
2022/09/28 03:15:27;;;;;;;;;;;15.70;95.90;;;;;;5097870;28;20402;-50
2022/09/28 03:17:53;;;;;;;;;;;15.60;95.90;;;;;;5097828;28;19915;-49
2022/09/28 03:20:19;;;;;;;;;;;15.60;96.10;;;;;;5097889;28;20363;-50
2022/09/28 03:22:45;;;;;;;;;;;15.60;95.80;;;;;;5097818;28;19957;-49
2022/09/28 03:25:11;;;;;;;;;;;15.60;95.70;;;;;;5098047;28;19908;-52
2022/09/28 03:27:37;;;;;;;;;;;15.60;95.60;;;;;;5097955;28;19954;-49
2022/09/28 03:30:03;;;;;;;;;;;15.60;95.70;;;;;;5098206;28;19979;-51
2022/09/28 03:32:28;;;;;;;;;;;15.60;95.50;;;;;;5097615;28;19912;-51
2022/09/28 03:34:54;;;;;;;;;;;15.60;95.80;;;;;;5097861;28;19908;-48
2022/09/28 03:37:20;;;;;;;;;;;15.60;95.80;;;;;;5097607;28;19908;-48
2022/09/28 03:39:46;;;;;;;;;;;15.60;95.60;;;;;;5097410;28;19996;-48
2022/09/28 03:42:11;;;;;;;;;;;15.60;95.70;;;;;;5097751;28;19912;-51
2022/09/28 03:44:37;;;;;;;;;;;15.60;95.80;;;;;;5097856;28;19955;-52
2022/09/28 03:47:03;;;;;;;;;;;15.60;95.80;;;;;;5097733;28;19918;-51
2022/09/28 03:49:28;;;;;;;;;;;15.60;95.90;;;;;;5097754;28;20365;-47
2022/09/28 03:51:54;;;;;;;;;;;15.60;95.70;;;;;;5097286;28;19919;-52
2022/09/28 03:54:20;;;;;;;;;;;15.60;95.90;;;;;;5097527;28;19908;-51
2022/09/28 03:56:45;;;;;;;;;;;15.60;96.00;;;;;;5099166;28;19908;-51
2022/09/28 03:59:11;;;;;;;;;;;15.60;95.60;;;;;;5101102;28;20485;-49
2022/09/28 04:01:36;;;;;;;;;;;15.50;95.80;;;;;;5101338;28;19909;-50
2022/09/28 04:04:02;;;;;;;;;;;15.50;95.80;;;;;;5101247;28;19908;-51
2022/09/28 04:06:27;;;;;;;;;;;15.50;95.80;;;;;;5100970;28;20299;-49
2022/09/28 04:08:53;;;;;;;;;;;15.50;95.90;;;;;;5101406;28;20014;-49
2022/09/28 04:11:19;;;;;;;;;;;15.50;95.60;;;;;;5101134;28;19954;-49
2022/09/28 04:13:47;;;;;;;;;;;15.60;95.70;;;;;;5100915;28;19915;-51
2022/09/28 04:16:12;;;;;;;;;;;15.50;95.90;;;;;;5100954;28;19908;-50
2022/09/28 04:18:38;;;;;;;;;;;15.50;95.90;;;;;;5100793;28;20397;-49
2022/09/28 04:21:05;;;;;;;;;;;15.50;95.90;;;;;;5100828;28;19908;-51
2022/09/28 04:23:31;;;;;;;;;;;15.50;95.80;;;;;;5101140;28;20011;-48
2022/09/28 04:25:57;;;;;;;;;;;15.50;95.80;;;;;;5100711;28;19957;-52
2022/09/28 04:31:09;;;;;;;;;;;15.50;96.10;;;;;;5100517;28;19953;-52
2022/09/28 04:33:34;;;;;;;;;;;15.50;96.20;;;;;;5100664;28;19916;-45
2022/09/28 04:36:00;;;;;;;;;;;15.50;96.10;;;;;;5100530;28;19958;-50
2022/09/28 04:38:25;;;;;;;;;;;15.50;95.90;;;;;;5100555;28;19908;-48
2022/09/28 04:40:51;;;;;;;;;;;15.50;95.80;;;;;;5100573;28;19915;-47
2022/09/28 04:43:17;;;;;;;;;;;15.40;95.80;;;;;;5100517;28;20359;-51
2022/09/28 04:45:42;;;;;;;;;;;15.30;95.30;;;;;;5100778;28;20002;-50
2022/09/28 04:48:08;;;;;;;;;;;15.20;95.20;;;;;;5100274;28;19908;-52
2022/09/28 04:50:33;;;;;;;;;;;15.00;95.00;;;;;;5100154;28;19908;-50
2022/09/28 04:52:59;;;;;;;;;;;15.00;95.00;;;;;;5100173;28;19912;-46
2022/09/28 04:55:27;;;;;;;;;;;15.00;94.80;;;;;;5100103;28;19931;-49
2022/09/28 04:57:53;;;;;;;;;;;14.90;94.90;;;;;;5100532;28;19929;-48
2022/09/28 05:00:18;;;;;;;;;;;14.80;95.00;;;;;;5099854;28;19908;-52
2022/09/28 05:02:44;;;;;;;;;;;14.80;95.00;;;;;;5099711;28;19908;-52
2022/09/28 05:05:10;;;;;;;;;;;14.70;95.10;;;;;;5100087;28;19916;-49
2022/09/28 05:07:35;;;;;;;;;;;14.70;95.00;;;;;;5099094;28;20267;-50
2022/09/28 05:10:01;;;;;;;;;;;14.70;95.10;;;;;;5099660;28;19962;-49
2022/09/28 05:12:26;;;;;;;;;;;14.70;95.30;;;;;;5099885;28;19919;-50
2022/09/28 05:14:52;;;;;;;;;;;14.70;95.00;;;;;;5099747;28;19915;-49
2022/09/28 05:17:18;;;;;;;;;;;14.70;95.10;;;;;;5099712;28;20343;-51
2022/09/28 05:19:43;;;;;;;;;;;14.70;95.10;;;;;;5099573;28;19908;-50
2022/09/28 05:22:13;;;;;;;;;;;14.60;95.00;;;;;;5099723;28;19908;-52
2022/09/28 05:24:39;;;;;;;;;;;14.70;95.10;;;;;;5100118;28;19909;-49
2022/09/28 05:27:05;;;;;;;;;;;14.70;94.90;;;;;;5099566;28;19908;-51
2022/09/28 05:29:30;;;;;;;;;;;14.70;95.00;;;;;;5099405;28;19912;-47
2022/09/28 05:31:56;;;;;;;;;;;14.70;95.20;;;;;;5099811;28;19951;-48
2022/09/28 05:34:22;;;;;;;;;;;14.70;95.30;;;;;;5099323;28;19912;-51
2022/09/28 05:36:47;;;;;;;;;;;14.70;95.10;;;;;;5099530;28;19908;-49
2022/09/28 05:39:13;;;;;;;;;;;14.70;95.10;;;;;;5099192;28;20283;-47
2022/09/28 05:41:39;;;;;;;;;;;14.60;95.00;;;;;;5099374;28;19947;-52
2022/09/28 05:44:04;;;;;;;;;;;14.60;94.90;;;;;;5099344;28;19914;-50
2022/09/28 05:46:30;;;;;;;;;;;14.50;95.00;;;;;;5099569;28;20017;-51
2022/09/28 05:48:55;;;;;;;;;;;14.50;94.80;;;;;;5099172;28;19915;-52
2022/09/28 05:51:23;;;;;;;;;;;14.50;94.70;;;;;;5099246;28;19919;-48
2022/09/28 05:53:49;;;;;;;;;;;14.40;94.60;;;;;;5099104;28;19981;-50
2022/09/28 05:56:14;;;;;;;;;;;14.40;94.90;;;;;;5099179;28;19908;-51
2022/09/28 05:58:40;;;;;;;;;;;14.40;94.80;;;;;;5099525;28;20252;-50
2022/09/28 06:01:05;;;;;;;;;;;14.40;94.80;;;;;;5099069;28;19908;-50
2022/09/28 06:03:31;;;;;;;;;;;14.30;94.80;;;;;;5080589;28;20003;-52
2022/09/28 06:05:59;;;;;;;;;;;14.30;94.80;;;;;;5098863;28;19920;-52
2022/09/28 06:08:24;;;;;;;;;;;14.30;94.60;;;;;;5099012;28;20001;-49
2022/09/28 06:10:50;;;;;;;;;;;14.20;94.50;;;;;;5099185;28;19912;-51
2022/09/28 06:13:15;;;;;;;;;;;14.20;94.40;;;;;;5098767;28;20378;-50
2022/09/28 06:15:42;;;;;;;;;;;14.20;94.30;;;;;;5098806;28;19989;-51
2022/09/28 06:18:14;;;;;;;;;;;14.20;94.20;;;;;;5098778;28;19915;-49
2022/09/28 06:20:40;;;;;;;;;;;14.10;94.10;;;;;;5097666;28;19908;-49
2022/09/28 06:23:06;;;;;;;;;;;14.10;94.20;;;;;;5098117;28;19980;-50
2022/09/28 06:25:32;;;;;;;;;;;14.10;94.30;;;;;;5098504;28;20298;-50
2022/09/28 06:28:06;;;;;;;;;;;14.10;94.20;;;;;;5098440;28;19908;-49
2022/09/28 06:30:32;;;;;;;;;;;14.10;94.80;;;;;;5098462;28;19908;-49
2022/09/28 06:32:59;;;;;;;;;;;14.10;94.50;;;;;;5098275;28;19912;-50
2022/09/28 06:35:25;;;;;;;;;;;14.10;94.70;;;;;;5098376;28;19915;-49
2022/09/28 06:37:51;;;;;;;;;;;14.10;94.70;;;;;;5098307;28;19909;-45
2022/09/28 06:40:18;;;;;;;;;;;14.10;94.50;;;;;;5097807;28;19908;-51
2022/09/28 06:42:43;;;;;;;;;;;14.00;94.40;;;;;;5097551;28;19970;-49
2022/09/28 06:45:12;;;;;;;;;;;14.00;94.60;;;;;;5098108;28;19923;-52
2022/09/28 06:47:37;;;;;;;;;;;14.00;94.40;;;;;;5098493;28;20001;-51
2022/09/28 06:50:09;;;;;;;;;;;13.90;94.20;;;;;;5097948;28;19912;-50
2022/09/28 06:52:35;;;;;;;;;;;13.90;94.10;;;;;;5097631;28;19919;-49
2022/09/28 06:55:01;;;;;;;;;;;13.80;94.40;;;;;;5098100;28;19951;-50
2022/09/28 06:57:26;;;;;;;;;;;13.80;94.00;;;;;;5098051;28;19908;-49
2022/09/28 06:59:52;;;;;;;;;;;13.70;94.00;;;;;;5098312;28;19916;-50
2022/09/28 07:02:18;;;;;;;;;;;13.70;94.30;;;;;;5098094;28;19908;-51
2022/09/28 07:04:44;;;;;;;;;;;13.70;94.20;;;;;;5097724;28;19908;-52
2022/09/28 07:07:09;;;;;;;;;;;13.70;94.20;;;;;;5097968;28;19913;-49
2022/09/28 07:09:35;;;;;;;;;;;13.70;94.10;;;;;;5097811;28;19915;-48
2022/09/28 07:12:03;;;;;;;;;;;13.70;94.60;;;;;;5097546;28;19912;-50
2022/09/28 07:14:29;;;;;;;;;;;13.70;95.00;;;;;;5098553;28;20358;-49
2022/09/28 07:16:54;;;;;;;;;;;13.70;94.80;;;;;;5097680;28;19999;-48
2022/09/28 07:19:20;;;;;;;;;;;13.70;94.70;;;;;;5097446;28;19954;-50
2022/09/28 07:21:46;;;;;;;;;;;13.70;95.00;;;;;;5097581;28;19909;-51
2022/09/28 07:24:12;;;;;;;;;;;13.80;95.30;;;;;;5097847;28;20006;-51
2022/09/28 07:26:38;;;;;;;;;;;13.90;95.20;;;;;;5097736;28;19908;-48
2022/09/28 07:29:04;;;;;;;;;;;14.10;95.50;;;;;;5097721;28;19908;-51
2022/09/28 07:31:31;;;;;;;;;;;14.20;95.50;;;;;;5098951;28;20367;-47
2022/09/28 07:33:57;;;;;;;;;;;14.20;95.30;;;;;;5101805;28;19915;-45
2022/09/28 07:36:23;;;;;;;;;;;14.40;95.20;;;;;;5101377;28;19915;-51
2022/09/28 07:38:49;;;;;;;;;;;14.40;95.20;;;;;;5101600;28;19943;-48
2022/09/28 07:41:20;;;;;;;;;;;14.50;95.10;;;;;;5101552;28;19908;-49
2022/09/28 07:43:46;;;;;;;;;;;14.60;94.90;;;;;;5101551;28;20379;-47
2022/09/28 07:46:11;;;;;;;;;;;14.70;94.60;;;;;;5101747;28;19938;-52
2022/09/28 07:48:38;;;;;;;;;;;14.70;94.50;;;;;;5101192;28;19951;-49
2022/09/28 07:51:03;;;;;;;;;;;14.70;94.40;;;;;;5101489;28;19912;-47
2022/09/28 07:53:30;;;;;;;;;;;14.70;94.60;;;;;;5101083;28;19919;-47
2022/09/28 07:56:00;;;;;;;;;;;14.80;94.60;;;;;;5100824;28;20121;-47
2022/09/28 07:58:26;;;;;;;;;;;14.80;94.60;;;;;;5100786;28;20321;-47
2022/09/28 08:00:52;;;;;;;;;;;14.80;94.50;;;;;;5101321;28;19912;-51
2022/09/28 08:03:18;;;;;;;;;;;14.90;94.50;;;;;;5100918;28;19908;-48
2022/09/28 08:05:45;;;;;;;;;;;14.80;94.50;;;;;;5100701;28;19926;-48
2022/09/28 08:08:11;;;;;;;;;;;14.80;94.40;;;;;;5101046;28;19916;-46
2022/09/28 08:10:37;;;;;;;;;;;14.90;94.50;;;;;;5101056;28;19909;-49
2022/09/28 08:13:03;;;;;;;;;;;14.90;94.50;;;;;;5100822;28;19923;-48
2022/09/28 08:15:33;;;;;;;;;;;14.90;94.60;;;;;;5100811;28;19962;-49
2022/09/28 08:17:59;;;;;;;;;;;15.00;94.50;;;;;;5100663;28;19908;-51
2022/09/28 08:23:10;;;;;;;;;;;15.00;94.40;;;;;;5100393;28;19958;-47
2022/09/28 08:25:36;;;;;;;;;;;15.10;94.50;;;;;;5100298;28;19965;-46
2022/09/28 08:28:02;;;;;;;;;;;15.20;94.60;;;;;;5100351;28;19965;-48
2022/09/28 08:30:28;;;;;;;;;;;15.20;94.20;;;;;;5100764;28;19908;-48
2022/09/28 08:32:53;;;;;;;;;;;15.20;94.30;;;;;;5100388;28;19951;-50
2022/09/28 08:35:19;;;;;;;;;;;15.30;94.40;;;;;;5100881;28;19908;-48
2022/09/28 08:37:53;;;;;;;;;;;15.30;94.20;;;;;;5100631;28;19916;-51
2022/09/28 08:40:23;;;;;;;;;;;15.30;94.20;;;;;;5100442;28;19908;-51
2022/09/28 08:42:52;;;;;;;;;;;15.30;94.20;;;;;;5100048;28;19909;-51
2022/09/28 08:45:20;;;;;;;;;;;15.30;93.80;;;;;;5100703;28;19992;-46
2022/09/28 08:50:57;;;;;;;;;;;15.30;94.10;;;;;;5100456;28;19931;-49
2022/09/28 08:53:23;;;;;;;;;;;15.30;94.10;;;;;;5099974;28;19934;-49
2022/09/28 08:55:49;;;;;;;;;;;15.30;94.20;;;;;;5100153;28;19987;-48
2022/09/28 08:58:27;;;;;;;;;;;15.30;94.20;;;;;;5100541;28;19909;-49
2022/09/28 09:00:53;;;;;;;;;;;15.40;94.40;;;;;;5100106;28;19908;-48
2022/09/28 09:03:28;;;;;;;;;;;15.40;94.30;;;;;;5099993;28;19912;-47
2022/09/28 09:06:02;;;;;;;;;;;15.50;94.50;;;;;;5099892;28;19924;-46
2022/09/28 09:08:31;;;;;;;;;;;15.50;94.20;;;;;;5100360;28;19908;-48
2022/09/28 09:10:56;;;;;;;;;;;15.70;94.70;;;;;;5099869;28;20359;-51
2022/09/28 09:13:31;;;;;;;;;;;15.70;94.20;;;;;;5099906;28;19919;-50
2022/09/28 09:16:16;;;;;;;;;;;15.80;94.50;;;;;;5100199;28;19912;-49
2022/09/28 09:18:52;;;;;;;;;;;16.00;94.20;;;;;;5099617;28;19932;-48
2022/09/28 09:21:36;;;;;;;;;;;16.30;94.50;;;;;;5099910;28;20013;-46
2022/09/28 09:24:17;;;;;;;;;;;16.60;94.80;;;;;;5099593;28;19946;-51
2022/09/28 09:26:43;;;;;;;;;;;16.80;94.00;;;;;;5099402;28;19916;-49
2022/09/28 09:29:19;;;;;;;;;;;16.80;93.00;;;;;;5099458;28;19912;-50
2022/09/28 09:32:03;;;;;;;;;;;16.90;93.10;;;;;;5098992;28;19908;-51
2022/09/28 09:34:48;;;;;;;;;;;17.10;92.90;;;;;;5099507;28;19915;-46
2022/09/28 09:37:23;;;;;;;;;;;16.90;91.80;;;;;;5099194;28;19915;-46
2022/09/28 09:40:08;;;;;;;;;;;16.90;92.60;;;;;;5099181;28;19958;-46
2022/09/28 09:42:35;;;;;;;;;;;16.90;92.20;;;;;;5098712;28;19914;-48
2022/09/28 09:45:13;;;;;;;;;;;16.90;92.10;;;;;;5096951;28;19914;-47
2022/09/28 09:47:43;;;;;;;;;;;16.80;92.80;;;;;;5096665;28;19913;-49
2022/09/28 09:50:11;;;;;;;;;;;17.00;92.00;;;;;;5098103;28;19909;-47
2022/09/28 09:52:53;;;;;;;;;;;17.00;92.50;;;;;;5097649;28;19912;-48
2022/09/28 09:55:24;;;;;;;;;;;17.30;92.50;;;;;;5097399;28;19914;-49
2022/09/28 09:58:09;;;;;;;;;;;17.50;92.50;;;;;;5099615;28;20212;-51
2022/09/28 10:00:39;;;;;;;;;;;17.70;92.20;;;;;;5080857;28;19908;-48
2022/09/28 10:03:05;;;;;;;;;;;17.60;91.30;;;;;;5098762;28;19908;-49
2022/09/28 10:05:33;;;;;;;;;;;17.50;89.70;;;;;;5098435;28;19920;-49
2022/09/28 10:08:01;;;;;;;;;;;17.10;90.40;;;;;;5098978;28;19915;-46
2022/09/28 10:10:29;;;;;;;;;;;17.00;90.00;;;;;;5097855;28;19908;-46
2022/09/28 10:12:55;;;;;;;;;;;17.00;89.30;;;;;;5098090;28;20284;-46
2022/09/28 10:15:28;;;;;;;;;;;17.00;90.40;;;;;;5097242;28;19908;-49
2022/09/28 10:17:55;;;;;;;;;;;17.10;90.80;;;;;;5098668;28;19931;-49
2022/09/28 10:20:22;;;;;;;;;;;17.30;92.10;;;;;;5098836;28;19912;-47
2022/09/28 10:22:49;;;;;;;;;;;17.20;90.70;;;;;;5097612;28;19943;-44
2022/09/28 10:25:14;;;;;;;;;;;17.20;90.80;;;;;;5098664;28;19915;-49
2022/09/28 10:27:44;;;;;;;;;;;17.20;90.70;;;;;;5098440;28;20367;-49
2022/09/28 10:30:13;;;;;;;;;;;17.20;90.60;;;;;;5098495;28;19955;-50
2022/09/28 10:32:43;;;;;;;;;;;17.20;90.20;;;;;;5098373;28;20396;-49
2022/09/28 10:35:18;;;;;;;;;;;17.20;90.70;;;;;;5095804;28;19909;-48
2022/09/28 10:37:46;;;;;;;;;;;17.10;90.40;;;;;;5098368;28;19908;-46
2022/09/28 10:40:32;;;;;;;;;;;17.50;91.30;;;;;;5097994;28;19908;-49
2022/09/28 10:42:59;;;;;;;;;;;17.70;89.40;;;;;;5098025;28;19995;-47
2022/09/28 10:45:25;;;;;;;;;;;17.80;90.60;;;;;;5097832;28;19912;-47
2022/09/28 10:47:51;;;;;;;;;;;17.70;89.60;;;;;;5098234;28;19915;-49
2022/09/28 10:50:21;;;;;;;;;;;17.60;86.90;;;;;;5097699;28;19912;-49
2022/09/28 10:52:47;;;;;;;;;;;17.50;88.80;;;;;;5097422;28;19912;-50
2022/09/28 10:55:24;;;;;;;;;;;17.50;88.90;;;;;;5097975;28;19908;-48
2022/09/28 10:57:49;;;;;;;;;;;17.50;88.80;;;;;;5097795;28;19908;-48
2022/09/28 11:00:32;;;;;;;;;;;17.50;88.40;;;;;;5097523;28;19928;-49
2022/09/28 11:02:58;;;;;;;;;;;17.90;88.30;;;;;;5097781;28;20399;-48
2022/09/28 11:05:28;;;;;;;;;;;18.60;91.00;;;;;;5098807;28;19927;-49
2022/09/28 11:07:55;;;;;;;;;;;19.00;79.50;;;;;;5102108;28;19912;-49
2022/09/28 11:10:24;;;;;;;;;;;19.50;87.80;;;;;;5101844;28;19908;-48
2022/09/28 11:12:51;;;;;;;;;;;20.20;83.90;;;;;;5101886;28;19912;-51
2022/09/28 11:15:20;;;;;;;;;;;20.70;76.70;;;;;;5101321;28;19947;-50
2022/09/28 11:17:46;;;;;;;;;;;20.70;81.40;;;;;;5101750;28;20006;-49
2022/09/28 11:20:24;;;;;;;;;;;21.60;90.30;;;;;;5101658;28;20401;-51
2022/09/28 11:22:50;;;;;;;;;;;22.10;76.40;;;;;;5101758;28;20000;-51
2022/09/28 11:25:16;;;;;;;;;;;22.30;76.30;;;;;;5101383;28;20393;-50
2022/09/28 11:27:51;;;;;;;;;;;22.60;76.00;;;;;;5101671;28;19908;-51
2022/09/28 11:30:36;;;;;;;;;;;22.90;70.50;;;;;;5101382;28;19908;-49
2022/09/28 11:33:05;;;;;;;;;;;22.90;75.90;;;;;;5087290;28;19920;-46
2022/09/28 11:35:34;;;;;;;;;;;23.50;67.40;;;;;;5101744;28;19908;-47
2022/09/28 11:38:10;;;;;;;;;;;23.80;63.00;;;;;;5101821;28;19981;-47
2022/09/28 11:40:53;;;;;;;;;;;23.00;64.70;;;;;;5101717;28;19908;-51
2022/09/28 11:43:18;;;;;;;;;;;21.90;66.20;;;;;;5101837;28;20061;-47
2022/09/28 11:45:51;;;;;;;;;;;21.20;67.70;;;;;;5100792;28;19948;-47
2022/09/28 11:48:20;;;;;;;;;;;20.60;68.30;;;;;;5099956;28;19908;-51
2022/09/28 11:50:52;;;;;;;;;;;20.60;68.70;;;;;;5101308;28;19980;-50
2022/09/28 11:53:27;;;;;;;;;;;20.80;70.80;;;;;;5101176;28;19912;-48
2022/09/28 11:55:58;;;;;;;;;;;21.10;68.20;;;;;;5101149;28;20006;-49
2022/09/28 11:58:39;;;;;;;;;;;21.80;70.30;;;;;;5101057;28;19915;-48
2022/09/28 12:01:16;;;;;;;;;;;22.10;68.00;;;;;;5101584;28;19948;-52
2022/09/28 12:03:43;;;;;;;;;;;21.70;64.40;;;;;;5101014;28;19957;-47
2022/09/28 12:06:18;;;;;;;;;;;21.40;67.60;;;;;;5101030;28;19927;-47
2022/09/28 12:08:50;;;;;;;;;;;21.10;67.40;;;;;;5101200;28;20236;-51
2022/09/28 12:11:36;;;;;;;;;;;20.70;69.90;;;;;;5100917;28;19914;-47
2022/09/28 12:14:05;;;;;;;;;;;20.20;67.70;;;;;;5101005;28;19912;-49
2022/09/28 12:16:43;;;;;;;;;;;19.70;67.60;;;;;;5100236;28;19915;-49
2022/09/28 12:19:26;;;;;;;;;;;18.90;70.80;;;;;;5101003;28;20294;-47
2022/09/28 12:21:55;;;;;;;;;;;18.50;71.10;;;;;;5100585;28;19912;-46
2022/09/28 12:24:26;;;;;;;;;;;18.30;70.90;;;;;;5100725;28;19909;-49
2022/09/28 12:27:10;;;;;;;;;;;17.70;73.00;;;;;;5100596;28;19915;-45
2022/09/28 12:29:39;;;;;;;;;;;17.50;75.70;;;;;;5100534;28;19979;-45
2022/09/28 12:32:14;;;;;;;;;;;17.00;75.50;;;;;;5100514;28;20296;-48
2022/09/28 12:34:41;;;;;;;;;;;16.60;75.90;;;;;;5100391;28;19908;-50
2022/09/28 12:37:36;;;;;;;;;;;16.50;76.90;;;;;;5100647;28;19908;-51
2022/09/28 12:40:11;;;;;;;;;;;16.40;75.70;;;;;;5082438;28;20304;-51
2022/09/28 12:42:55;;;;;;;;;;;16.50;77.90;;;;;;5100494;28;19989;-45
2022/09/28 12:45:29;;;;;;;;;;;16.60;77.80;;;;;;5100631;28;20349;-46
2022/09/28 12:47:55;;;;;;;;;;;16.70;77.70;;;;;;5100350;28;20402;-50
2022/09/28 12:50:33;;;;;;;;;;;16.80;78.60;;;;;;5100142;28;19909;-45
2022/09/28 12:53:12;;;;;;;;;;;17.20;78.00;;;;;;5100018;28;19919;-46
2022/09/28 12:55:58;;;;;;;;;;;17.60;78.40;;;;;;5100231;28;19939;-48
2022/09/28 12:58:27;;;;;;;;;;;17.70;76.10;;;;;;5100445;28;19908;-45
2022/09/28 13:00:53;;;;;;;;;;;18.10;75.90;;;;;;5100112;28;19912;-45
2022/09/28 13:03:22;;;;;;;;;;;18.50;75.00;;;;;;5100153;28;19969;-51
2022/09/28 13:05:51;;;;;;;;;;;18.80;75.20;;;;;;5099715;28;19955;-49
2022/09/28 13:08:26;;;;;;;;;;;19.60;78.00;;;;;;5099719;28;19908;-46
2022/09/28 13:11:17;;;;;;;;;;;20.40;70.70;;;;;;5099884;28;19912;-49
2022/09/28 13:14:05;;;;;;;;;;;21.00;72.00;;;;;;5099676;28;19912;-48
2022/09/28 13:16:37;;;;;;;;;;;21.60;69.50;;;;;;5097566;28;19908;-51
2022/09/28 13:19:09;;;;;;;;;;;22.00;65.40;;;;;;5099696;28;19934;-50
2022/09/28 13:21:39;;;;;;;;;;;22.60;69.00;;;;;;5099605;28;20256;-52
2022/09/28 13:24:07;;;;;;;;;;;23.10;62.10;;;;;;5099406;28;20371;-48
2022/09/28 13:26:35;;;;;;;;;;;22.90;56.00;;;;;;5099973;28;20271;-51
2022/09/28 13:29:09;;;;;;;;;;;22.90;66.60;;;;;;5098614;28;19915;-52
2022/09/28 13:31:38;;;;;;;;;;;22.90;60.70;;;;;;5099219;28;19912;-50
2022/09/28 13:34:06;;;;;;;;;;;22.80;59.90;;;;;;5099270;28;19919;-50
2022/09/28 13:36:31;;;;;;;;;;;23.10;57.20;;;;;;5099538;28;20343;-48
2022/09/28 13:39:00;;;;;;;;;;;23.00;53.20;;;;;;5099306;28;19908;-47
2022/09/28 13:41:28;;;;;;;;;;;22.50;61.60;;;;;;5099175;28;19915;-51
2022/09/28 13:44:12;;;;;;;;;;;22.70;53.60;;;;;;5099069;28;20018;-47
2022/09/28 13:46:40;;;;;;;;;;;22.70;53.20;;;;;;5099266;28;19908;-51
2022/09/28 13:49:16;;;;;;;;;;;23.20;56.00;;;;;;5099197;28;19908;-51
2022/09/28 13:51:51;;;;;;;;;;;23.50;57.30;;;;;;5099087;28;19939;-50
2022/09/28 13:54:16;;;;;;;;;;;22.60;50.50;;;;;;5098973;28;20367;-49
2022/09/28 13:56:51;;;;;;;;;;;21.70;58.90;;;;;;5099057;28;19914;-49
2022/09/28 13:59:28;;;;;;;;;;;21.40;54.60;;;;;;5098908;28;19908;-46
2022/09/28 14:02:17;;;;;;;;;;;21.40;61.00;;;;;;5098490;28;19925;-46
2022/09/28 14:04:52;;;;;;;;;;;21.10;60.50;;;;;;5072093;28;19934;-48
2022/09/28 14:07:23;;;;;;;;;;;21.50;58.50;;;;;;5098962;28;19908;-48
2022/09/28 14:10:07;;;;;;;;;;;22.00;57.00;;;;;;5098660;28;19908;-49
2022/09/28 14:12:33;;;;;;;;;;;22.20;57.40;;;;;;5098513;28;19935;-49
2022/09/28 14:14:59;;;;;;;;;;;22.60;55.70;;;;;;5098694;28;19908;-50
2022/09/28 14:17:24;;;;;;;;;;;22.40;51.10;;;;;;5098493;28;19908;-50
2022/09/28 14:19:55;;;;;;;;;;;22.30;58.80;;;;;;5098721;28;20351;-49
2022/09/28 14:22:21;;;;;;;;;;;22.70;54.20;;;;;;5098411;28;20328;-47
2022/09/28 14:25:06;;;;;;;;;;;23.00;56.30;;;;;;5098562;28;19915;-48
2022/09/28 14:27:50;;;;;;;;;;;23.00;57.10;;;;;;5098534;28;19915;-50
2022/09/28 14:30:21;;;;;;;;;;;23.10;54.20;;;;;;5098299;28;19930;-47
2022/09/28 14:32:51;;;;;;;;;;;22.50;49.80;;;;;;5098341;28;19971;-45
2022/09/28 14:35:26;;;;;;;;;;;22.60;55.50;;;;;;5098569;28;20386;-46
2022/09/28 14:41:09;;;;;;;;;;;22.70;54.00;;;;;;5098101;28;20056;-50